This is the latest recevied weather packets stored in our database for station/object OE5WWO. If no packets are shown the sender has not sent any weather packets the latest 10 day(s).
| Time | Temp. | Humidity | Pressure | Rain* | Wind** | Luminosity | Snow |
|---|---|---|---|---|---|---|---|
| 1777790137 | 15.56° C | 60% | 1017.2 hPa | 0 mm | - | - | - |
| 1777788949 | 14.44° C | 59% | 1017.1 hPa | 0 mm | - | - | - |
| 1777780536 | 8.89° C | 77% | 1016.8 hPa | 0 mm | - | - | - |
| 1777777837 | 9.44° C | 71% | 1016.8 hPa | 0 mm | - | - | - |
| 1777777537 | 9.44° C | 70% | 1016.8 hPa | 0 mm | - | - | - |
| 1777776636 | 9.44° C | 68% | 1016.7 hPa | 0 mm | - | - | - |
| 1777773939 | 10.56° C | 63% | 1017 hPa | 0 mm | - | - | - |
| 1777773650 | 10.56° C | 62% | 1017 hPa | 0 mm | - | - | - |
| 1777771236 | 11.67° C | 59% | 1017.1 hPa | 0 mm | - | - | - |
| 1777769736 | 12.22° C | 57% | 1017 hPa | 0 mm | - | - | - |
| 1777766469 | 15.56° C | 45% | 1017.3 hPa | 0 mm | - | - | - |
| 1777765240 | 15.56° C | 44% | 1017.5 hPa | 0 mm | - | - | - |
| 1777764937 | 15.56° C | 43% | 1017.4 hPa | 0 mm | - | - | - |
| 1777762536 | 15° C | 43% | 1017.7 hPa | 0 mm | - | - | - |
| 1777760158 | 15° C | 43% | 1018 hPa | 0 mm | - | - | - |
| 1777759258 | 15° C | 43% | 1018.1 hPa | 0 mm | - | - | - |
| 1777755937 | 16.11° C | 41% | 1018.1 hPa | 0 mm | - | - | - |
| 1777755338 | 16.11° C | 41% | 1018.3 hPa | 0 mm | - | - | - |
| 1777754139 | 16.11° C | 42% | 1018.3 hPa | 0 mm | - | - | - |
| 1777753237 | 16.11° C | 42% | 1018.3 hPa | 0 mm | - | - | - |
| 1777751739 | 16.67° C | 41% | 1018.5 hPa | 0 mm | - | - | - |
| 1777750838 | 17.22° C | 41% | 1018.4 hPa | 0 mm | - | - | - |
| 1777750249 | 17.22° C | 40% | 1018.4 hPa | 0 mm | - | - | - |
| 1777749938 | 17.78° C | 40% | 1018.5 hPa | 0 mm | - | - | - |
| 1777749037 | 17.78° C | 39% | 1018.3 hPa | 0 mm | - | - | - |
* Rain latest hour (hover to see other rain measurements)
** Current wind speed in m/s (hover to see current wind gust speed)